createdAt,value
2023-04-21T00:00:27.579Z,25.25
2023-04-21T00:00:57.668Z,25.25
2023-04-21T00:01:27.786Z,25.25
2023-04-21T00:01:57.845Z,25.23
2023-04-21T00:02:28.023Z,25.23
2023-04-21T00:02:58.041Z,25.20
2023-04-21T00:03:28.348Z,25.25
2023-04-21T00:03:58.418Z,25.23
2023-04-21T00:04:28.361Z,25.18
2023-04-21T00:04:58.426Z,25.15
2023-04-21T00:05:28.476Z,25.15
2023-04-21T00:05:58.375Z,25.16
2023-04-21T00:06:28.384Z,25.12
2023-04-21T00:06:58.472Z,25.11
2023-04-21T00:07:28.552Z,25.12
2023-04-21T00:07:58.630Z,25.12
2023-04-21T00:08:28.729Z,25.12
2023-04-21T00:08:58.825Z,25.09
2023-04-21T00:09:28.902Z,25.09
2023-04-21T00:09:58.973Z,25.11
2023-04-21T00:10:29.068Z,25.06
2023-04-21T00:10:59.144Z,25.08
2023-04-21T00:11:29.223Z,25.06
2023-04-21T00:11:59.310Z,25.03
2023-04-21T00:12:29.387Z,25.03
2023-04-21T00:12:59.461Z,25.03
2023-04-21T00:13:29.557Z,25.02
2023-04-21T00:13:59.626Z,25.03
2023-04-21T00:14:29.704Z,25.02
2023-04-21T00:14:59.793Z,25.01
2023-04-21T00:15:29.887Z,24.98
2023-04-21T00:15:59.998Z,25.01
2023-04-21T00:16:30.156Z,24.99
2023-04-21T00:17:00.187Z,24.97
2023-04-21T00:17:30.206Z,25.01
2023-04-21T00:18:00.236Z,24.99
2023-04-21T00:18:30.227Z,24.99
2023-04-21T00:19:00.308Z,24.98
2023-04-21T00:19:30.400Z,24.99
2023-04-21T00:20:00.496Z,24.99
2023-04-21T00:20:30.577Z,25.01
2023-04-21T00:21:00.646Z,25.02
2023-04-21T00:21:30.745Z,25.01
2023-04-21T00:22:00.833Z,25.05
2023-04-21T00:22:30.907Z,25.02
2023-04-21T00:23:01.009Z,25.03
2023-04-21T00:23:31.065Z,25.05
2023-04-21T00:24:01.145Z,25.06
2023-04-21T00:24:31.214Z,25.05
2023-04-21T00:25:01.222Z,25.06
2023-04-21T00:25:31.269Z,25.05
2023-04-21T00:26:01.308Z,25.01
2023-04-21T00:26:31.358Z,25.03
2023-04-21T00:27:01.392Z,25.05
2023-04-21T00:27:31.428Z,25.08
2023-04-21T00:28:01.476Z,25.06
2023-04-21T00:28:31.529Z,25.06
2023-04-21T00:29:01.568Z,25.05
2023-04-21T00:29:31.597Z,25.08
2023-04-21T00:30:01.630Z,25.09
2023-04-21T00:30:31.669Z,25.11
2023-04-21T00:31:01.758Z,25.12
2023-04-21T00:31:31.841Z,25.12
2023-04-21T00:32:01.903Z,25.11
2023-04-21T00:32:32.006Z,25.12
2023-04-21T00:33:01.994Z,25.11
2023-04-21T00:33:31.996Z,25.11
2023-04-21T00:34:02.032Z,25.13
2023-04-21T00:34:32.109Z,25.13
2023-04-21T00:35:02.187Z,25.16
2023-04-21T00:35:32.269Z,25.13
2023-04-21T00:36:02.363Z,25.15
2023-04-21T00:36:32.452Z,25.18
2023-04-21T00:37:02.528Z,25.16
2023-04-21T00:37:32.620Z,25.16
2023-04-21T00:38:02.710Z,25.13
2023-04-21T00:38:32.796Z,25.16
2023-04-21T00:39:02.869Z,25.18
2023-04-21T00:39:32.947Z,25.16
2023-04-21T00:40:03.043Z,25.16
2023-04-21T00:40:33.119Z,25.18
2023-04-21T00:41:03.198Z,25.19
2023-04-21T00:41:33.282Z,25.19
2023-04-21T00:42:03.348Z,25.19
2023-04-21T00:42:33.455Z,25.19
2023-04-21T00:43:03.543Z,25.20
2023-04-21T00:43:33.617Z,25.19
2023-04-21T00:44:03.724Z,25.19
2023-04-21T00:44:33.809Z,25.18
2023-04-21T00:45:03.883Z,25.13
2023-04-21T00:45:33.969Z,25.15
2023-04-21T00:46:04.030Z,25.15
2023-04-21T00:46:34.194Z,25.16
2023-04-21T00:47:04.294Z,25.16
2023-04-21T00:47:34.287Z,25.13
2023-04-21T00:48:04.414Z,25.15
2023-04-21T00:48:34.397Z,25.13
2023-04-21T00:49:04.471Z,25.15
2023-04-21T00:49:34.557Z,25.15
2023-04-21T00:50:04.630Z,25.15
2023-04-21T00:50:34.725Z,25.15
2023-04-21T00:51:04.802Z,25.16
2023-04-21T00:51:34.896Z,25.15
2023-04-21T00:52:04.976Z,25.13
2023-04-21T00:52:35.080Z,25.13
2023-04-21T00:53:05.164Z,25.09
2023-04-21T00:53:35.257Z,25.09
2023-04-21T00:54:05.375Z,25.09
2023-04-21T00:54:35.387Z,25.09
2023-04-21T00:55:05.482Z,25.05
2023-04-21T00:55:35.552Z,25.05
2023-04-21T00:56:05.644Z,25.05
2023-04-21T00:56:35.722Z,25.06
2023-04-21T00:57:05.801Z,25.05
2023-04-21T00:57:35.897Z,25.08
2023-04-21T00:58:05.993Z,25.08
2023-04-21T00:58:36.065Z,25.09
2023-04-21T00:59:06.148Z,25.08
2023-04-21T00:59:36.221Z,25.03
2023-04-21T01:00:06.296Z,25.06
2023-04-21T01:00:36.480Z,25.03
2023-04-21T01:01:06.411Z,25.03
2023-04-21T01:01:36.429Z,25.02
2023-04-21T01:02:36.582Z,25.02
2023-04-21T01:03:06.695Z,25.01
2023-04-21T01:03:36.683Z,25.02
2023-04-21T01:04:06.799Z,24.99
2023-04-21T01:04:36.619Z,24.99
2023-04-21T01:05:06.706Z,24.95
2023-04-21T01:05:36.790Z,24.95
2023-04-21T01:06:06.870Z,24.94
2023-04-21T01:06:36.965Z,24.92
2023-04-21T01:07:07.045Z,24.92
2023-04-21T01:07:37.141Z,24.95
2023-04-21T01:08:07.230Z,24.92
2023-04-21T01:08:37.292Z,24.91
2023-04-21T01:09:07.381Z,24.97
2023-04-21T01:09:37.456Z,24.94
2023-04-21T01:10:07.543Z,24.94
2023-04-21T01:10:37.622Z,24.95
2023-04-21T01:11:07.689Z,24.97
2023-04-21T01:11:37.772Z,24.94
2023-04-21T01:12:07.856Z,24.95
2023-04-21T01:12:37.949Z,24.95
2023-04-21T01:13:08.028Z,24.97
2023-04-21T01:13:38.119Z,24.98
2023-04-21T01:14:08.213Z,24.97
2023-04-21T01:14:38.285Z,24.95
2023-04-21T01:15:08.363Z,24.95
2023-04-21T01:15:38.454Z,24.98
2023-04-21T01:16:08.557Z,24.97
2023-04-21T01:16:38.599Z,24.99
2023-04-21T01:17:08.581Z,25.01
2023-04-21T01:17:38.830Z,25.02
2023-04-21T01:18:08.839Z,25.01
2023-04-21T01:18:38.832Z,25.02
2023-04-21T01:19:08.915Z,25.01
2023-04-21T01:19:38.996Z,25.03
2023-04-21T01:20:09.088Z,25.05
2023-04-21T01:20:39.161Z,25.03
2023-04-21T01:21:09.250Z,25.05
2023-04-21T01:21:39.319Z,25.05
2023-04-21T01:22:09.402Z,25.05
2023-04-21T01:22:39.504Z,25.08
2023-04-21T01:23:09.593Z,25.05
2023-04-21T01:23:39.671Z,25.09
2023-04-21T01:24:09.731Z,25.05
2023-04-21T01:24:39.767Z,25.08
2023-04-21T01:25:09.809Z,25.08
2023-04-21T01:25:39.843Z,25.08
2023-04-21T01:26:09.884Z,25.08
2023-04-21T01:26:39.927Z,25.09
2023-04-21T01:27:09.954Z,25.09
2023-04-21T01:27:40.009Z,25.08
2023-04-21T01:28:10.056Z,25.11
2023-04-21T01:28:40.095Z,25.09
2023-04-21T01:29:10.130Z,25.13
2023-04-21T01:29:40.167Z,25.15
2023-04-21T01:30:10.271Z,25.15
2023-04-21T01:30:40.309Z,25.18
2023-04-21T01:31:10.340Z,25.20
2023-04-21T01:31:40.424Z,25.19
2023-04-21T01:32:10.523Z,25.19
2023-04-21T01:32:40.516Z,25.20
2023-04-21T01:33:10.576Z,25.20
2023-04-21T01:33:40.712Z,25.19
2023-04-21T01:34:10.620Z,25.20
2023-04-21T01:35:10.748Z,25.20
2023-04-21T01:35:40.825Z,25.23
2023-04-21T01:36:10.913Z,25.25
2023-04-21T01:36:40.988Z,25.25
2023-04-21T01:37:11.081Z,25.23
2023-04-21T01:37:41.190Z,25.22
2023-04-21T01:38:11.155Z,25.23
2023-04-21T01:38:41.278Z,25.25
2023-04-21T01:39:11.332Z,25.23
2023-04-21T01:39:41.412Z,25.18
2023-04-21T01:40:11.486Z,25.20
2023-04-21T01:40:41.563Z,25.20
2023-04-21T01:41:11.653Z,25.19
2023-04-21T01:41:41.742Z,25.19
2023-04-21T01:42:11.830Z,25.12
2023-04-21T01:42:41.926Z,25.11
2023-04-21T01:43:11.998Z,25.12
2023-04-21T01:43:42.086Z,25.09
2023-04-21T01:44:12.153Z,25.09
2023-04-21T01:44:42.241Z,25.09
2023-04-21T01:45:12.312Z,25.08
2023-04-21T01:45:42.425Z,25.08
2023-04-21T01:46:12.584Z,25.06
2023-04-21T01:46:42.578Z,25.05
2023-04-21T01:47:12.662Z,25.03
2023-04-21T01:47:42.810Z,25.01
2023-04-21T01:48:12.804Z,24.98
2023-04-21T01:48:42.782Z,24.98
2023-04-21T01:49:12.850Z,24.97
2023-04-21T01:49:42.942Z,24.98
2023-04-21T01:50:13.038Z,24.98
2023-04-21T01:50:43.100Z,24.98
2023-04-21T01:51:13.176Z,24.98
2023-04-21T01:51:43.255Z,24.94
2023-04-21T01:52:13.342Z,24.95
2023-04-21T01:52:43.443Z,24.98
2023-04-21T01:53:13.515Z,24.99
2023-04-21T01:53:43.600Z,24.95
2023-04-21T01:54:13.688Z,24.98
2023-04-21T01:54:43.773Z,24.98
2023-04-21T01:55:13.849Z,24.95
2023-04-21T01:55:43.925Z,24.94
2023-04-21T01:56:14.007Z,24.89
2023-04-21T01:56:44.141Z,24.89
2023-04-21T01:57:14.161Z,24.89
2023-04-21T01:57:44.176Z,24.91
2023-04-21T01:58:14.249Z,24.88
2023-04-21T01:58:44.333Z,24.85
2023-04-21T01:59:14.422Z,24.84
2023-04-21T01:59:44.500Z,24.86
2023-04-21T02:00:14.590Z,24.85
2023-04-21T02:00:44.663Z,24.85
2023-04-21T02:01:14.781Z,24.84
2023-04-21T02:01:44.815Z,24.81
2023-04-21T02:02:15.044Z,24.82
2023-04-21T02:02:45.072Z,24.79
2023-04-21T02:03:15.161Z,24.81
2023-04-21T02:03:45.110Z,24.81
2023-04-21T02:04:15.109Z,24.79
2023-04-21T02:04:45.037Z,24.82
2023-04-21T02:05:15.138Z,24.81
2023-04-21T02:05:45.227Z,24.82
2023-04-21T02:06:15.349Z,24.84
2023-04-21T02:06:45.424Z,24.85
2023-04-21T02:07:15.502Z,24.88
2023-04-21T02:07:45.588Z,24.88
2023-04-21T02:08:15.670Z,24.89
2023-04-21T02:08:45.760Z,24.86
2023-04-21T02:09:15.854Z,24.92
2023-04-21T02:09:45.935Z,24.89
2023-04-21T02:10:16.102Z,24.89
2023-04-21T02:10:46.058Z,24.95
2023-04-21T02:11:16.137Z,24.94
2023-04-21T02:11:46.210Z,24.89
2023-04-21T02:12:16.285Z,24.92
2023-04-21T02:12:46.390Z,24.92
2023-04-21T02:13:16.462Z,24.94
2023-04-21T02:13:46.547Z,24.97
2023-04-21T02:14:16.623Z,24.95
2023-04-21T02:14:46.709Z,24.95
2023-04-21T02:15:16.801Z,24.99
2023-04-21T02:15:46.914Z,25.01
2023-04-21T02:16:17.034Z,24.99
2023-04-21T02:16:47.117Z,25.01
2023-04-21T02:17:17.098Z,24.99
2023-04-21T02:17:47.223Z,25.01
2023-04-21T02:18:17.202Z,24.99
2023-04-21T02:18:47.311Z,25.02
2023-04-21T02:19:17.629Z,25.03
2023-04-21T02:19:47.415Z,25.02
2023-04-21T02:20:17.496Z,25.08
2023-04-21T02:20:47.578Z,25.05
2023-04-21T02:21:17.658Z,25.05
2023-04-21T02:21:47.744Z,25.02
2023-04-21T02:22:17.852Z,25.06
2023-04-21T02:22:47.931Z,25.03
2023-04-21T02:23:18.025Z,25.05
2023-04-21T02:23:48.084Z,25.03
2023-04-21T02:24:18.147Z,25.08
2023-04-21T02:24:48.182Z,25.06
2023-04-21T02:25:18.229Z,25.11
2023-04-21T02:25:48.250Z,25.09
2023-04-21T02:26:18.305Z,25.08
2023-04-21T02:26:48.329Z,25.08
2023-04-21T02:27:18.372Z,25.06
2023-04-21T02:27:48.428Z,25.06
2023-04-21T02:28:18.453Z,25.08
2023-04-21T02:28:48.499Z,25.11
2023-04-21T02:29:18.813Z,25.09
2023-04-21T02:29:48.571Z,25.09
2023-04-21T02:30:18.592Z,25.09
2023-04-21T02:30:48.630Z,25.08
2023-04-21T02:31:18.755Z,25.09
2023-04-21T02:32:00.853Z,25.12
2023-04-21T02:32:26.056Z,25.15
2023-04-21T02:32:48.935Z,25.11
2023-04-21T02:33:18.813Z,25.15
2023-04-21T02:33:48.844Z,25.15
2023-04-21T02:34:18.934Z,25.15
2023-04-21T02:34:48.988Z,25.18
2023-04-21T02:35:19.070Z,25.16
2023-04-21T02:35:49.142Z,25.18
2023-04-21T02:36:19.232Z,25.19
2023-04-21T02:36:49.310Z,25.19
2023-04-21T02:37:19.397Z,25.19
2023-04-21T02:37:49.476Z,25.18
2023-04-21T02:38:19.560Z,25.18
2023-04-21T02:38:49.652Z,25.15
2023-04-21T02:39:20.048Z,25.19
2023-04-21T02:39:49.831Z,25.16
2023-04-21T02:40:19.921Z,25.15
2023-04-21T02:40:50.000Z,25.13
2023-04-21T02:41:20.077Z,25.11
2023-04-21T02:41:50.161Z,25.12
2023-04-21T02:42:20.235Z,25.12
2023-04-21T02:42:50.329Z,25.08
2023-04-21T02:43:20.414Z,25.05
2023-04-21T02:43:50.496Z,25.05
2023-04-21T02:44:20.574Z,25.09
2023-04-21T02:44:50.676Z,25.05
2023-04-21T02:45:20.749Z,25.06
2023-04-21T02:45:50.837Z,25.03
2023-04-21T02:46:20.961Z,25.05
2023-04-21T02:46:50.978Z,25.03
2023-04-21T02:47:21.029Z,25.02
2023-04-21T02:47:51.061Z,25.01
2023-04-21T02:48:21.005Z,25.01
2023-04-21T02:48:51.086Z,25.02
2023-04-21T02:49:21.502Z,24.99
2023-04-21T02:49:51.271Z,25.02
2023-04-21T02:50:21.349Z,24.98
2023-04-21T02:50:51.426Z,25.01
2023-04-21T02:51:21.520Z,24.95
2023-04-21T02:51:51.600Z,24.95
2023-04-21T02:52:21.682Z,24.89
2023-04-21T02:52:51.780Z,24.92
2023-04-21T02:53:21.859Z,24.91
2023-04-21T02:53:51.924Z,24.94
2023-04-21T02:54:22.017Z,24.91
2023-04-21T02:54:52.096Z,24.91
2023-04-21T02:55:22.178Z,24.89
2023-04-21T02:55:52.261Z,24.89
2023-04-21T02:56:22.348Z,24.89
2023-04-21T02:56:52.435Z,24.86
2023-04-21T02:57:22.517Z,24.88
2023-04-21T02:57:52.638Z,24.85
2023-04-21T02:58:22.609Z,24.86
2023-04-21T02:58:52.691Z,24.88
2023-04-21T02:59:22.981Z,24.84
2023-04-21T02:59:52.853Z,24.84
2023-04-21T03:00:22.932Z,24.86
2023-04-21T03:00:53.054Z,24.85
2023-04-21T03:01:23.130Z,24.81
2023-04-21T03:01:53.060Z,24.82
2023-04-21T03:02:23.176Z,24.84
2023-04-21T03:02:53.545Z,24.84
2023-04-21T03:03:23.536Z,24.84
2023-04-21T03:03:53.436Z,24.82
2023-04-21T03:04:23.620Z,24.82
2023-04-21T03:04:53.491Z,24.81
2023-04-21T03:05:23.577Z,24.81
2023-04-21T03:05:53.657Z,24.81
2023-04-21T03:06:23.740Z,24.82
2023-04-21T03:06:53.816Z,24.81
2023-04-21T03:07:23.904Z,24.82
2023-04-21T03:07:53.994Z,24.84
2023-04-21T03:08:24.082Z,24.82
2023-04-21T03:08:54.156Z,24.85
2023-04-21T03:09:24.240Z,24.86
2023-04-21T03:09:54.319Z,24.84
2023-04-21T03:10:24.408Z,24.88
2023-04-21T03:10:54.499Z,24.88
2023-04-21T03:11:24.572Z,24.85
2023-04-21T03:11:54.649Z,24.86
2023-04-21T03:12:24.734Z,24.85
2023-04-21T03:12:54.837Z,24.86
2023-04-21T03:13:24.922Z,24.88
2023-04-21T03:13:55.009Z,24.86
2023-04-21T03:14:25.095Z,24.88
2023-04-21T03:14:55.191Z,24.86
2023-04-21T03:15:25.267Z,24.91
2023-04-21T03:15:55.337Z,24.91
2023-04-21T03:16:25.471Z,24.94
2023-04-21T03:16:55.519Z,24.94
2023-04-21T03:17:25.469Z,24.94
2023-04-21T03:17:55.682Z,24.92
2023-04-21T03:18:25.660Z,24.95
2023-04-21T03:18:55.779Z,24.95
2023-04-21T03:19:25.866Z,24.95
2023-04-21T03:19:55.918Z,24.95
2023-04-21T03:20:26.018Z,24.95
2023-04-21T03:20:56.087Z,24.95
2023-04-21T03:21:26.177Z,24.95
2023-04-21T03:21:56.264Z,24.97
2023-04-21T03:22:26.341Z,24.97
2023-04-21T03:22:56.423Z,24.99
2023-04-21T03:23:26.502Z,24.97
2023-04-21T03:23:56.595Z,24.99
2023-04-21T03:24:26.627Z,24.97
2023-04-21T03:24:56.665Z,24.99
2023-04-21T03:25:26.700Z,24.97
2023-04-21T03:25:56.743Z,24.98
2023-04-21T03:26:26.789Z,24.98
2023-04-21T03:26:56.817Z,24.99
2023-04-21T03:27:26.856Z,24.98
2023-04-21T03:27:56.897Z,24.98
2023-04-21T03:28:26.944Z,24.98
2023-04-21T03:28:56.983Z,24.98
2023-04-21T03:29:27.020Z,24.99
2023-04-21T03:29:57.056Z,24.97
2023-04-21T03:30:27.093Z,24.99
2023-04-21T03:30:57.144Z,24.99
2023-04-21T03:31:27.200Z,25.01
2023-04-21T03:31:57.280Z,24.98
2023-04-21T03:32:27.376Z,24.98
2023-04-21T03:32:57.425Z,24.98
2023-04-21T03:33:27.384Z,24.98
2023-04-21T03:33:57.432Z,24.97
2023-04-21T03:34:27.502Z,24.98
2023-04-21T03:34:57.605Z,24.98
2023-04-21T03:35:27.676Z,24.99
2023-04-21T03:35:57.754Z,24.98
2023-04-21T03:36:27.829Z,24.95
2023-04-21T03:36:57.910Z,24.92
2023-04-21T03:37:27.992Z,24.91
2023-04-21T03:37:58.091Z,24.92
2023-04-21T03:38:28.162Z,24.91
2023-04-21T03:39:03.350Z,24.89
2023-04-21T03:39:28.319Z,24.89
2023-04-21T03:39:58.413Z,24.88
2023-04-21T03:40:28.491Z,24.86
2023-04-21T03:40:58.570Z,24.88
2023-04-21T03:41:28.650Z,24.86
2023-04-21T03:41:58.745Z,24.88
2023-04-21T03:42:28.815Z,24.84
2023-04-21T03:42:58.908Z,24.81
2023-04-21T03:43:28.985Z,24.81
2023-04-21T03:43:59.066Z,24.82
2023-04-21T03:44:29.180Z,24.84
2023-04-21T03:44:59.249Z,24.78
2023-04-21T03:45:29.329Z,24.77
2023-04-21T03:45:59.484Z,24.77
2023-04-21T03:46:29.619Z,24.77
2023-04-21T03:46:59.475Z,24.77
2023-04-21T03:47:29.571Z,24.78
2023-04-21T03:47:59.769Z,24.77
2023-04-21T03:48:29.656Z,24.75
2023-04-21T03:49:01.855Z,24.75
2023-04-21T03:49:29.810Z,24.72
2023-04-21T03:49:59.886Z,24.70
2023-04-21T03:50:29.986Z,24.71
2023-04-21T03:51:00.056Z,24.68
2023-04-21T03:51:30.149Z,24.68
2023-04-21T03:52:00.242Z,24.68
2023-04-21T03:52:30.311Z,24.64
2023-04-21T03:53:00.396Z,24.66
2023-04-21T03:53:30.473Z,24.64
2023-04-21T03:54:00.560Z,24.61
2023-04-21T03:54:30.650Z,24.60
2023-04-21T03:55:00.720Z,24.57
2023-04-21T03:55:30.834Z,24.57
2023-04-21T03:56:00.935Z,24.56
2023-04-21T03:56:31.012Z,24.56
2023-04-21T03:57:01.093Z,24.54
2023-04-21T03:57:31.193Z,24.51
2023-04-21T03:58:01.285Z,24.50
2023-04-21T03:58:31.355Z,24.49
2023-04-21T03:59:01.438Z,24.53
2023-04-21T03:59:31.523Z,24.49
2023-04-21T04:00:01.605Z,24.50
2023-04-21T04:00:31.686Z,24.49
2023-04-21T04:01:01.769Z,24.50
2023-04-21T04:01:31.853Z,24.51
2023-04-21T04:02:02.027Z,24.53
2023-04-21T04:02:32.073Z,24.50
2023-04-21T04:03:02.199Z,24.53
2023-04-21T04:03:32.232Z,24.51
2023-04-21T04:04:02.452Z,24.51
2023-04-21T04:04:32.537Z,24.54
2023-04-21T04:05:02.216Z,24.57
2023-04-21T04:05:32.328Z,24.56
2023-04-21T04:06:02.288Z,24.56
2023-04-21T04:06:32.374Z,24.58
2023-04-21T04:07:02.456Z,24.66
2023-04-21T04:07:32.551Z,24.67
2023-04-21T04:08:02.626Z,24.68
2023-04-21T04:08:32.708Z,24.71
2023-04-21T04:09:02.803Z,24.75
2023-04-21T04:09:32.864Z,24.75
2023-04-21T04:10:02.948Z,24.75
2023-04-21T04:10:33.041Z,24.79
2023-04-21T04:11:03.157Z,24.78
2023-04-21T04:11:33.211Z,24.79
2023-04-21T04:12:03.293Z,24.74
2023-04-21T04:12:33.395Z,24.71
2023-04-21T04:13:03.385Z,24.66
2023-04-21T04:13:33.462Z,24.61
2023-04-21T04:14:03.547Z,24.57
2023-04-21T04:14:33.629Z,24.50
2023-04-21T04:15:03.720Z,24.47
2023-04-21T04:15:33.852Z,24.46
2023-04-21T04:16:03.859Z,24.40
2023-04-21T04:16:33.898Z,24.38
2023-04-21T04:17:03.877Z,24.35
2023-04-21T04:17:34.072Z,24.33
2023-04-21T04:18:04.101Z,24.33
2023-04-21T04:18:34.051Z,24.29
2023-04-21T04:19:04.135Z,24.24
2023-04-21T04:19:34.220Z,24.26
2023-04-21T04:20:04.312Z,24.23
2023-04-21T04:20:34.417Z,24.22
2023-04-21T04:21:04.480Z,24.20
2023-04-21T04:21:34.556Z,24.15
2023-04-21T04:22:04.638Z,24.15
2023-04-21T04:22:34.744Z,24.11
2023-04-21T04:23:04.809Z,24.09
2023-04-21T04:23:34.893Z,24.06
2023-04-21T04:24:04.968Z,24.05
2023-04-21T04:24:35.020Z,24.01
2023-04-21T04:25:05.066Z,24.01
2023-04-21T04:25:35.105Z,23.99
2023-04-21T04:26:05.147Z,23.95
2023-04-21T04:26:35.186Z,23.96
2023-04-21T04:27:05.241Z,23.96
2023-04-21T04:27:35.293Z,23.95
2023-04-21T04:28:05.376Z,23.92
2023-04-21T04:28:35.425Z,23.92
2023-04-21T04:29:05.481Z,23.89
2023-04-21T04:29:35.506Z,23.95
2023-04-21T04:30:05.561Z,23.95
2023-04-21T04:30:35.595Z,23.91
2023-04-21T04:31:05.640Z,23.91
2023-04-21T04:31:35.723Z,23.91
2023-04-21T04:32:05.760Z,23.89
2023-04-21T04:32:35.870Z,23.89
2023-04-21T04:33:05.985Z,23.87
2023-04-21T04:33:35.902Z,23.87
2023-04-21T04:34:05.954Z,23.87
2023-04-21T04:34:36.042Z,23.85
2023-04-21T04:35:06.121Z,23.87
2023-04-21T04:35:36.201Z,23.84
2023-04-21T04:36:06.319Z,23.84
2023-04-21T04:36:36.383Z,23.88
2023-04-21T04:37:06.506Z,23.87
2023-04-21T04:37:36.486Z,23.89
2023-04-21T04:38:06.553Z,23.87
2023-04-21T04:38:36.657Z,23.87
2023-04-21T04:39:08.335Z,23.87
2023-04-21T04:39:36.744Z,23.88
2023-04-21T04:40:06.820Z,23.87
2023-04-21T04:40:36.913Z,23.89
2023-04-21T04:41:07.010Z,23.89
2023-04-21T04:41:37.100Z,23.88
2023-04-21T04:42:07.179Z,23.85
2023-04-21T04:42:37.255Z,23.88
2023-04-21T04:43:07.342Z,23.91
2023-04-21T04:43:37.441Z,23.94
2023-04-21T04:44:07.516Z,23.95
2023-04-21T04:44:37.587Z,23.95
2023-04-21T04:45:07.673Z,23.94
2023-04-21T04:45:37.764Z,23.94
2023-04-21T04:46:07.927Z,23.96
2023-04-21T04:46:37.948Z,23.96
2023-04-21T04:47:07.963Z,23.95
2023-04-21T04:47:37.964Z,23.94
2023-04-21T04:48:07.917Z,23.96
2023-04-21T04:48:38.033Z,23.96
2023-04-21T04:49:08.124Z,23.94
2023-04-21T04:49:38.204Z,23.95
2023-04-21T04:50:08.294Z,23.96
2023-04-21T04:50:38.368Z,24.01
2023-04-21T04:51:08.465Z,24.04
2023-04-21T04:51:38.675Z,24.02
2023-04-21T04:52:08.623Z,24.06
2023-04-21T04:52:38.713Z,24.05
2023-04-21T04:53:08.785Z,24.08
2023-04-21T04:53:38.874Z,24.08
2023-04-21T04:54:08.958Z,24.08
2023-04-21T04:54:39.039Z,24.06
2023-04-21T04:55:09.116Z,24.05
2023-04-21T04:55:39.149Z,24.06
2023-04-21T04:56:09.231Z,24.08
2023-04-21T04:56:39.317Z,24.09
2023-04-21T04:57:09.386Z,24.08
2023-04-21T04:57:39.476Z,24.08
2023-04-21T04:58:09.626Z,24.08
2023-04-21T04:58:39.576Z,24.05
2023-04-21T04:59:09.672Z,24.09
2023-04-21T04:59:39.747Z,24.09
2023-04-21T05:00:09.830Z,24.08
2023-04-21T05:00:39.919Z,24.08
2023-04-21T05:01:10.022Z,24.06
2023-04-21T05:01:40.171Z,24.08
2023-04-21T05:02:10.212Z,24.08
2023-04-21T05:02:40.638Z,24.09
2023-04-21T05:03:10.388Z,24.12
2023-04-21T05:03:40.423Z,24.12
2023-04-21T05:04:10.475Z,24.11
2023-04-21T05:04:40.466Z,24.12
2023-04-21T05:05:10.599Z,24.11
2023-04-21T05:05:40.568Z,24.11
2023-04-21T05:06:10.659Z,24.09
2023-04-21T05:06:40.738Z,24.11
2023-04-21T05:07:10.848Z,24.12
2023-04-21T05:07:40.905Z,24.12
2023-04-21T05:08:11.002Z,24.15
2023-04-21T05:08:41.081Z,24.16
2023-04-21T05:09:11.190Z,24.15
2023-04-21T05:09:41.260Z,24.16
2023-04-21T05:10:11.349Z,24.17
2023-04-21T05:10:41.452Z,24.19
2023-04-21T05:11:11.559Z,24.15
2023-04-21T05:11:41.626Z,24.17
2023-04-21T05:12:11.747Z,24.19
2023-04-21T05:12:41.759Z,24.20
2023-04-21T05:13:11.762Z,24.17
2023-04-21T05:13:41.838Z,24.22
2023-04-21T05:14:11.932Z,24.20
2023-04-21T05:14:42.006Z,24.24
2023-04-21T05:15:12.088Z,24.24
2023-04-21T05:15:42.182Z,24.27
2023-04-21T05:16:12.280Z,24.29
2023-04-21T05:16:42.420Z,24.29
2023-04-21T05:17:12.371Z,24.30
2023-04-21T05:17:42.503Z,24.32
2023-04-21T05:18:12.474Z,24.32
2023-04-21T05:18:42.551Z,24.32
2023-04-21T05:19:12.619Z,24.35
2023-04-21T05:19:42.705Z,24.33
2023-04-21T05:20:12.800Z,24.35
2023-04-21T05:20:42.893Z,24.35
2023-04-21T05:21:12.989Z,24.35
2023-04-21T05:21:43.056Z,24.35
2023-04-21T05:22:13.166Z,24.36
2023-04-21T05:22:43.243Z,24.35
2023-04-21T05:23:13.305Z,24.38
2023-04-21T05:23:43.386Z,24.38
2023-04-21T05:24:13.437Z,24.38
2023-04-21T05:24:43.483Z,24.39
2023-04-21T05:25:13.512Z,24.40
2023-04-21T05:25:43.547Z,24.40
2023-04-21T05:26:13.600Z,24.42
2023-04-21T05:26:43.624Z,24.44
2023-04-21T05:27:13.674Z,24.44
2023-04-21T05:27:43.739Z,24.47
2023-04-21T05:28:13.814Z,24.47
2023-04-21T05:28:43.843Z,24.50
2023-04-21T05:29:13.888Z,24.51
2023-04-21T05:29:43.914Z,24.53
2023-04-21T05:30:13.979Z,24.53
2023-04-21T05:30:44.024Z,24.50
2023-04-21T05:31:14.053Z,24.53
2023-04-21T05:31:44.126Z,24.54
2023-04-21T05:32:14.157Z,24.53
2023-04-21T05:32:44.290Z,24.57
2023-04-21T05:33:14.383Z,24.58
2023-04-21T05:33:44.325Z,24.60
2023-04-21T05:34:14.383Z,24.61
2023-04-21T05:34:44.497Z,24.58
2023-04-21T05:35:53.588Z,24.54
2023-04-21T05:36:23.655Z,24.57
2023-04-21T05:36:53.688Z,24.56
2023-04-21T05:37:23.752Z,24.53
2023-04-21T05:37:53.801Z,24.58
2023-04-21T05:38:23.851Z,24.56
2023-04-21T05:38:53.892Z,24.57
2023-04-21T05:39:23.974Z,24.60
2023-04-21T05:39:54.026Z,24.58
2023-04-21T05:40:24.092Z,24.57
2023-04-21T05:40:54.126Z,24.60
2023-04-21T05:41:24.174Z,24.61
2023-04-21T05:41:54.217Z,24.58
2023-04-21T05:42:24.263Z,24.57
2023-04-21T05:42:54.325Z,24.60
2023-04-21T05:43:24.371Z,24.58
2023-04-21T05:43:54.402Z,24.58
2023-04-21T05:44:24.458Z,24.60
2023-04-21T05:44:54.504Z,24.60
2023-04-21T05:45:24.526Z,24.61
2023-04-21T05:45:54.665Z,24.60
2023-04-21T05:46:24.696Z,24.58
2023-04-21T05:46:54.649Z,24.61
2023-04-21T05:47:24.741Z,24.63
2023-04-21T05:47:54.892Z,24.63
2023-04-21T05:49:04.039Z,24.58
2023-04-21T05:49:34.062Z,24.56
2023-04-21T05:50:04.113Z,24.58
2023-04-21T05:50:34.186Z,24.58
2023-04-21T05:51:04.223Z,24.58
2023-04-21T05:51:34.268Z,24.56
2023-04-21T05:52:04.313Z,24.57
2023-04-21T05:52:34.451Z,24.54
2023-04-21T05:53:04.472Z,24.57
2023-04-21T05:53:34.489Z,24.57
2023-04-21T05:54:04.540Z,24.53
2023-04-21T05:54:34.600Z,24.54
2023-04-21T05:55:04.634Z,24.56
2023-04-21T05:55:34.663Z,24.57
2023-04-21T05:56:04.717Z,24.60
2023-04-21T05:56:34.781Z,24.61
2023-04-21T05:57:04.815Z,24.64
2023-04-21T05:57:34.885Z,24.61
2023-04-21T05:58:04.902Z,24.60
2023-04-21T05:58:34.966Z,24.63
2023-04-21T05:59:05.043Z,24.60
2023-04-21T05:59:35.111Z,24.61
2023-04-21T06:00:05.201Z,24.56
2023-04-21T06:00:35.275Z,24.57
2023-04-21T06:01:05.429Z,24.57
2023-04-21T06:01:35.381Z,24.60
2023-04-21T06:02:05.606Z,24.58
2023-04-21T06:02:35.686Z,24.54
2023-04-21T06:03:05.727Z,24.58
2023-04-21T06:03:35.822Z,24.61
2023-04-21T06:04:06.296Z,24.58
2023-04-21T06:04:36.150Z,24.57
2023-04-21T06:05:06.319Z,24.61
2023-04-21T06:05:36.011Z,24.61
2023-04-21T06:06:06.029Z,24.61
2023-04-21T06:06:36.065Z,24.58
2023-04-21T06:07:06.041Z,24.61
2023-04-21T06:07:36.134Z,24.61
2023-04-21T06:08:06.252Z,24.63
2023-04-21T06:08:36.240Z,24.61
2023-04-21T06:09:06.329Z,24.63
2023-04-21T06:09:36.407Z,24.61
2023-04-21T06:10:06.524Z,24.64
2023-04-21T06:10:36.600Z,24.63
2023-04-21T06:11:06.704Z,24.63
2023-04-21T06:11:36.684Z,24.66
2023-04-21T06:12:06.761Z,24.67
2023-04-21T06:12:36.847Z,24.68
2023-04-21T06:13:06.946Z,24.67
2023-04-21T06:13:38.831Z,24.67
2023-04-21T06:14:07.046Z,24.71
2023-04-21T06:14:37.137Z,24.68
2023-04-21T06:15:07.218Z,24.68
2023-04-21T06:15:37.324Z,24.68
2023-04-21T06:16:07.451Z,24.67
2023-04-21T06:16:37.598Z,24.67
2023-04-21T06:17:07.574Z,24.66
2023-04-21T06:17:37.741Z,24.66
2023-04-21T06:18:07.803Z,24.68
2023-04-21T06:18:37.708Z,24.68
2023-04-21T06:19:07.776Z,24.67
2023-04-21T06:19:37.859Z,24.67
2023-04-21T06:20:07.944Z,24.67
2023-04-21T06:20:38.020Z,24.70
2023-04-21T06:21:08.112Z,24.66
2023-04-21T06:21:38.216Z,24.68
2023-04-21T06:22:08.289Z,24.68
2023-04-21T06:22:38.372Z,24.66
2023-04-21T06:23:08.385Z,24.66
2023-04-21T06:23:38.494Z,24.66
2023-04-21T06:24:08.559Z,24.67
2023-04-21T06:24:38.637Z,24.66
2023-04-21T06:25:08.714Z,24.64
2023-04-21T06:25:38.797Z,24.68
2023-04-21T06:26:08.880Z,24.64
2023-04-21T06:26:38.982Z,24.64
2023-04-21T06:27:09.056Z,24.66
2023-04-21T06:27:39.143Z,24.66
2023-04-21T06:28:09.227Z,24.64
2023-04-21T06:28:39.371Z,24.61
2023-04-21T06:29:09.334Z,24.61
2023-04-21T06:29:39.419Z,24.61